createdAt,value
2023-05-25T00:00:08.241Z,1018.68
2023-05-25T00:01:08.225Z,1018.70
2023-05-25T00:02:08.283Z,1018.74
2023-05-25T00:03:08.311Z,1018.76
2023-05-25T00:04:08.243Z,1018.77
2023-05-25T00:05:08.163Z,1018.75
2023-05-25T00:06:08.147Z,1018.73
2023-05-25T00:07:08.196Z,1018.77
2023-05-25T00:08:08.140Z,1018.77
2023-05-25T00:09:08.122Z,1018.71
2023-05-25T00:10:08.114Z,1018.75
2023-05-25T00:11:08.102Z,1018.74
2023-05-25T00:12:08.111Z,1018.74
2023-05-25T00:13:08.080Z,1018.74
2023-05-25T00:14:08.122Z,1018.74
2023-05-25T00:15:08.065Z,1018.70
2023-05-25T00:16:08.069Z,1018.72
2023-05-25T00:17:08.156Z,1018.73
2023-05-25T00:18:08.060Z,1018.73
2023-05-25T00:19:08.017Z,1018.71
2023-05-25T00:20:08.158Z,1018.72
2023-05-25T00:21:07.989Z,1018.69
2023-05-25T00:22:07.983Z,1018.74
2023-05-25T00:23:07.968Z,1018.73
2023-05-25T00:24:07.992Z,1018.74
2023-05-25T00:25:07.944Z,1018.75
2023-05-25T00:26:07.923Z,1018.76
2023-05-25T00:27:07.924Z,1018.75
2023-05-25T00:28:07.925Z,1018.70
2023-05-25T00:29:08.068Z,1018.76
2023-05-25T00:30:07.910Z,1018.75
2023-05-25T00:31:07.908Z,1018.72
2023-05-25T00:32:07.871Z,1018.74
2023-05-25T00:33:07.900Z,1018.75
2023-05-25T00:34:07.864Z,1018.74
2023-05-25T00:35:07.819Z,1018.76
2023-05-25T00:36:07.821Z,1018.74
2023-05-25T00:37:07.824Z,1018.75
2023-05-25T00:38:07.812Z,1018.74
2023-05-25T00:39:07.824Z,1018.73
2023-05-25T00:40:07.786Z,1018.75
2023-05-25T00:41:07.777Z,1018.73
2023-05-25T00:42:07.763Z,1018.74
2023-05-25T00:43:07.746Z,1018.71
2023-05-25T00:44:07.718Z,1018.72
2023-05-25T00:45:07.730Z,1018.74
2023-05-25T00:46:07.766Z,1018.74
2023-05-25T00:47:07.678Z,1018.75
2023-05-25T00:48:07.729Z,1018.74
2023-05-25T00:49:07.661Z,1018.71
2023-05-25T00:50:07.702Z,1018.72
2023-05-25T00:51:07.654Z,1018.73
2023-05-25T00:52:07.650Z,1018.75
2023-05-25T00:53:07.646Z,1018.72
2023-05-25T00:54:07.660Z,1018.74
2023-05-25T00:55:07.614Z,1018.73
2023-05-25T00:56:07.622Z,1018.75
2023-05-25T00:57:07.569Z,1018.76
2023-05-25T00:58:07.591Z,1018.74
2023-05-25T00:59:07.625Z,1018.73
2023-05-25T01:00:07.534Z,1018.74
2023-05-25T01:01:07.536Z,1018.72
2023-05-25T01:02:07.698Z,1018.72
2023-05-25T01:03:09.664Z,1018.75
2023-05-25T01:04:07.724Z,1018.74
2023-05-25T01:05:07.502Z,1018.75
2023-05-25T01:06:07.483Z,1018.73
2023-05-25T01:07:07.471Z,1018.68
2023-05-25T01:08:07.445Z,1018.74
2023-05-25T01:09:07.454Z,1018.74
2023-05-25T01:10:07.436Z,1018.74
2023-05-25T01:11:07.404Z,1018.75
2023-05-25T01:12:07.428Z,1018.72
2023-05-25T01:13:07.390Z,1018.74
2023-05-25T01:14:07.406Z,1018.79
2023-05-25T01:15:07.393Z,1018.76
2023-05-25T01:16:07.386Z,1018.78
2023-05-25T01:17:07.375Z,1018.78
2023-05-25T01:18:07.369Z,1018.79
2023-05-25T01:19:07.329Z,1018.81
2023-05-25T01:20:11.251Z,1018.82
2023-05-25T01:21:07.313Z,1018.79
2023-05-25T01:22:07.305Z,1018.81
2023-05-25T01:23:07.270Z,1018.81
2023-05-25T01:39:16.922Z,1018.80
2023-05-25T01:40:16.888Z,1018.78
2023-05-25T01:41:16.867Z,1018.78
2023-05-25T01:42:16.830Z,1018.76
2023-05-25T01:43:16.812Z,1018.74
2023-05-25T01:44:16.827Z,1018.73
2023-05-25T01:45:16.833Z,1018.73
2023-05-25T01:46:16.814Z,1018.77
2023-05-25T01:47:16.802Z,1018.78
2023-05-25T01:48:16.767Z,1018.78
2023-05-25T01:49:16.768Z,1018.79
2023-05-25T01:50:16.744Z,1018.74
2023-05-25T01:51:16.738Z,1018.78
2023-05-25T01:52:16.777Z,1018.78
2023-05-25T01:53:16.713Z,1018.80
2023-05-25T01:54:16.693Z,1018.80
2023-05-25T01:55:16.698Z,1018.82
2023-05-25T01:56:16.728Z,1018.80
2023-05-25T01:57:16.669Z,1018.78
2023-05-25T01:58:16.648Z,1018.81
2023-05-25T01:59:16.652Z,1018.78
2023-05-25T02:00:16.628Z,1018.77
2023-05-25T02:01:16.710Z,1018.79
2023-05-25T02:02:16.721Z,1018.80
2023-05-25T02:03:16.586Z,1018.80
2023-05-25T02:04:16.625Z,1018.80
2023-05-25T02:05:16.596Z,1018.79
2023-05-25T02:06:16.561Z,1018.83
2023-05-25T02:07:16.633Z,1018.77
2023-05-25T02:08:16.532Z,1018.76
2023-05-25T02:09:16.538Z,1018.80
2023-05-25T02:10:16.529Z,1018.82
2023-05-25T02:11:16.634Z,1018.78
2023-05-25T02:12:16.516Z,1018.78
2023-05-25T02:13:16.477Z,1018.75
2023-05-25T02:14:16.479Z,1018.74
2023-05-25T02:15:16.456Z,1018.71
2023-05-25T02:16:16.474Z,1018.74
2023-05-25T02:17:16.449Z,1018.73
2023-05-25T02:18:16.461Z,1018.73
2023-05-25T02:19:16.435Z,1018.73
2023-05-25T02:20:16.436Z,1018.73
2023-05-25T02:21:16.394Z,1018.75
2023-05-25T02:22:16.391Z,1018.76
2023-05-25T02:23:16.364Z,1018.75
2023-05-25T02:24:16.385Z,1018.73
2023-05-25T02:25:16.351Z,1018.75
2023-05-25T02:26:16.353Z,1018.74
2023-05-25T02:27:16.359Z,1018.76
2023-05-25T02:28:16.334Z,1018.74
2023-05-25T02:29:16.297Z,1018.72
2023-05-25T02:30:16.302Z,1018.72
2023-05-25T02:31:16.313Z,1018.75
2023-05-25T02:32:16.291Z,1018.74
2023-05-25T02:33:16.258Z,1018.73
2023-05-25T02:34:16.260Z,1018.72
2023-05-25T02:35:16.230Z,1018.72
2023-05-25T02:36:16.221Z,1018.71
2023-05-25T02:37:16.246Z,1018.76
2023-05-25T02:38:16.215Z,1018.76
2023-05-25T02:39:16.204Z,1018.75
2023-05-25T02:40:16.178Z,1018.73
2023-05-25T02:41:16.160Z,1018.72
2023-05-25T02:42:16.221Z,1018.71
2023-05-25T02:43:16.164Z,1018.74
2023-05-25T02:44:16.128Z,1018.76
2023-05-25T02:45:16.126Z,1018.80
2023-05-25T02:46:16.133Z,1018.79
2023-05-25T02:47:16.113Z,1018.80
2023-05-25T02:48:16.094Z,1018.82
2023-05-25T02:49:16.099Z,1018.84
2023-05-25T02:50:16.070Z,1018.85
2023-05-25T02:51:16.052Z,1018.84
2023-05-25T02:52:16.109Z,1018.85
2023-05-25T02:53:16.035Z,1018.86
2023-05-25T02:54:16.014Z,1018.84
2023-05-25T02:55:16.010Z,1018.87
2023-05-25T02:56:16.008Z,1018.85
2023-05-25T02:57:15.986Z,1018.86
2023-05-25T02:58:16.005Z,1018.90
2023-05-25T02:59:15.974Z,1018.90
2023-05-25T03:00:15.946Z,1018.91
2023-05-25T03:01:16.004Z,1018.90
2023-05-25T03:02:15.928Z,1018.91
2023-05-25T03:03:15.975Z,1018.88
2023-05-25T03:04:15.914Z,1018.89
2023-05-25T03:05:15.897Z,1018.84
2023-05-25T03:06:15.890Z,1018.84
2023-05-25T03:07:15.875Z,1018.87
2023-05-25T03:08:15.867Z,1018.88
2023-05-25T03:09:15.856Z,1018.91
2023-05-25T03:10:15.842Z,1018.92
2023-05-25T03:11:15.818Z,1018.93
2023-05-25T03:12:15.846Z,1018.94
2023-05-25T03:13:15.840Z,1018.89
2023-05-25T03:14:15.828Z,1018.91
2023-05-25T03:15:15.806Z,1018.89
2023-05-25T03:16:15.823Z,1018.87
2023-05-25T03:17:15.769Z,1018.87
2023-05-25T03:18:15.767Z,1018.84
2023-05-25T03:19:15.727Z,1018.88
2023-05-25T03:20:15.784Z,1018.90
2023-05-25T03:21:15.720Z,1018.91
2023-05-25T03:22:15.709Z,1018.91
2023-05-25T03:23:15.689Z,1018.89
2023-05-25T03:24:15.682Z,1018.91
2023-05-25T03:25:15.660Z,1018.88
2023-05-25T03:26:15.653Z,1018.89
2023-05-25T03:27:15.663Z,1018.90
2023-05-25T03:28:15.631Z,1018.90
2023-05-25T03:29:15.611Z,1018.91
2023-05-25T03:30:15.613Z,1018.97
2023-05-25T03:31:15.622Z,1018.97
2023-05-25T03:32:15.740Z,1018.97
2023-05-25T03:33:15.607Z,1018.94
2023-05-25T03:34:15.564Z,1018.98
2023-05-25T03:35:15.556Z,1018.96
2023-05-25T03:36:15.536Z,1018.95
2023-05-25T03:37:15.530Z,1018.96
2023-05-25T03:38:15.522Z,1018.96
2023-05-25T03:39:15.536Z,1019.02
2023-05-25T03:40:15.512Z,1019.02
2023-05-25T03:41:15.482Z,1019.02
2023-05-25T03:42:15.466Z,1019.06
2023-05-25T03:43:15.458Z,1019.05
2023-05-25T03:44:15.460Z,1019.08
2023-05-25T03:45:15.584Z,1019.11
2023-05-25T03:46:15.465Z,1019.12
2023-05-25T03:47:15.434Z,1019.13
2023-05-25T03:48:15.405Z,1019.14
2023-05-25T03:49:15.446Z,1019.14
2023-05-25T03:50:15.392Z,1019.16
2023-05-25T03:51:15.410Z,1019.13
2023-05-25T03:52:15.361Z,1019.17
2023-05-25T03:53:15.343Z,1019.19
2023-05-25T03:54:15.335Z,1019.22
2023-05-25T03:55:15.327Z,1019.24
2023-05-25T03:56:15.349Z,1019.23
2023-05-25T03:57:15.293Z,1019.23
2023-05-25T03:58:15.308Z,1019.24
2023-05-25T03:59:15.276Z,1019.26
2023-05-25T04:00:15.268Z,1019.23
2023-05-25T04:01:15.262Z,1019.27
2023-05-25T04:02:15.302Z,1019.26
2023-05-25T04:03:15.362Z,1019.31
2023-05-25T04:04:15.250Z,1019.36
2023-05-25T04:05:15.208Z,1019.37
2023-05-25T04:06:15.211Z,1019.41
2023-05-25T04:07:15.191Z,1019.40
2023-05-25T04:08:15.176Z,1019.47
2023-05-25T04:09:15.165Z,1019.43
2023-05-25T04:10:15.157Z,1019.42
2023-05-25T04:11:15.174Z,1019.43
2023-05-25T04:12:15.135Z,1019.44
2023-05-25T04:13:15.140Z,1019.44
2023-05-25T04:14:15.118Z,1019.47
2023-05-25T04:15:15.096Z,1019.49
2023-05-25T04:16:15.154Z,1019.46
2023-05-25T04:17:15.090Z,1019.49
2023-05-25T04:18:15.093Z,1019.50
2023-05-25T04:19:15.063Z,1019.49
2023-05-25T04:20:15.069Z,1019.50
2023-05-25T04:21:15.033Z,1019.52
2023-05-25T04:22:15.041Z,1019.54
2023-05-25T04:23:15.009Z,1019.56
2023-05-25T04:24:14.994Z,1019.60
2023-05-25T04:25:14.988Z,1019.66
2023-05-25T04:26:14.977Z,1019.68
2023-05-25T04:27:14.974Z,1019.66
2023-05-25T04:28:14.962Z,1019.69
2023-05-25T04:29:14.944Z,1019.61
2023-05-25T04:30:14.962Z,1019.62
2023-05-25T04:31:14.955Z,1019.65
2023-05-25T04:32:14.937Z,1019.64
2023-05-25T04:33:14.899Z,1019.68
2023-05-25T04:34:14.880Z,1019.73
2023-05-25T04:35:14.944Z,1019.74
2023-05-25T04:36:14.866Z,1019.70
2023-05-25T04:37:14.882Z,1019.71
2023-05-25T04:38:14.831Z,1019.68
2023-05-25T04:39:14.828Z,1019.70
2023-05-25T04:40:14.823Z,1019.71
2023-05-25T04:41:14.810Z,1019.72
2023-05-25T04:42:14.796Z,1019.73
2023-05-25T04:43:14.799Z,1019.72
2023-05-25T04:44:14.781Z,1019.71
2023-05-25T04:45:14.747Z,1019.73
2023-05-25T04:46:14.813Z,1019.72
2023-05-25T04:47:14.725Z,1019.68
2023-05-25T04:48:14.728Z,1019.68
2023-05-25T04:49:14.716Z,1019.72
2023-05-25T04:50:14.694Z,1019.72
2023-05-25T04:51:14.723Z,1019.72
2023-05-25T04:52:14.696Z,1019.71
2023-05-25T04:53:14.691Z,1019.72
2023-05-25T04:54:14.661Z,1019.71
2023-05-25T04:55:14.648Z,1019.72
2023-05-25T04:56:14.628Z,1019.70
2023-05-25T04:57:14.637Z,1019.69
2023-05-25T04:58:14.847Z,1019.67
2023-05-25T04:59:14.588Z,1019.68
2023-05-25T05:00:14.593Z,1019.68
2023-05-25T05:01:14.634Z,1019.71
2023-05-25T05:02:14.663Z,1019.70
2023-05-25T05:03:14.606Z,1019.72
2023-05-25T05:04:14.554Z,1019.67
2023-05-25T05:05:14.524Z,1019.67
2023-05-25T05:06:14.525Z,1019.70
2023-05-25T05:07:14.532Z,1019.68
2023-05-25T05:08:14.493Z,1019.72
2023-05-25T05:09:14.488Z,1019.72
2023-05-25T05:10:14.478Z,1019.73
2023-05-25T05:11:14.466Z,1019.74
2023-05-25T05:12:14.485Z,1019.72
2023-05-25T05:13:14.442Z,1019.72
2023-05-25T05:14:14.447Z,1019.71
2023-05-25T05:15:14.439Z,1019.72
2023-05-25T05:16:14.423Z,1019.73
2023-05-25T05:17:14.411Z,1019.76
2023-05-25T05:18:14.396Z,1019.72
2023-05-25T05:19:14.371Z,1019.67
2023-05-25T05:20:14.430Z,1019.74
2023-05-25T05:21:14.344Z,1019.77
2023-05-25T05:22:14.355Z,1019.80
2023-05-25T05:23:14.375Z,1019.83
2023-05-25T05:24:14.312Z,1019.78
2023-05-25T05:25:14.297Z,1019.82
2023-05-25T05:26:14.302Z,1019.83
2023-05-25T05:27:14.293Z,1019.79
2023-05-25T05:28:14.290Z,1019.87
2023-05-25T05:29:14.263Z,1019.84
2023-05-25T05:30:14.245Z,1019.88
2023-05-25T05:31:14.237Z,1019.94
2023-05-25T05:32:14.228Z,1019.92
2023-05-25T05:33:14.358Z,1019.91
2023-05-25T05:34:14.222Z,1019.92
2023-05-25T05:35:14.195Z,1019.90
2023-05-25T05:36:14.166Z,1019.89
2023-05-25T05:37:14.206Z,1019.93
2023-05-25T05:38:14.162Z,1019.90
2023-05-25T05:39:14.189Z,1019.89
2023-05-25T05:40:14.170Z,1019.90
2023-05-25T05:41:14.232Z,1019.90
2023-05-25T05:42:14.153Z,1019.90
2023-05-25T05:43:14.089Z,1019.91
2023-05-25T05:44:14.086Z,1019.98
2023-05-25T05:45:14.104Z,1019.95
2023-05-25T05:46:14.093Z,1020.04
2023-05-25T05:47:14.058Z,1019.99
2023-05-25T05:48:14.037Z,1020.06
2023-05-25T05:49:14.049Z,1020.08
2023-05-25T05:50:14.022Z,1020.06
2023-05-25T05:51:14.022Z,1020.02
2023-05-25T05:52:14.018Z,1020.06
2023-05-25T05:53:13.995Z,1020.02
2023-05-25T05:54:13.982Z,1020.10
2023-05-25T05:55:14.016Z,1020.04
2023-05-25T05:56:13.961Z,1020.08
2023-05-25T05:57:13.967Z,1020.11
2023-05-25T05:58:13.918Z,1020.17
2023-05-25T05:59:13.912Z,1020.18
2023-05-25T06:00:13.912Z,1020.18
2023-05-25T06:01:13.894Z,1020.20
2023-05-25T06:02:13.949Z,1020.23
2023-05-25T06:03:13.920Z,1020.22
2023-05-25T06:04:13.862Z,1020.22
2023-05-25T06:05:13.893Z,1020.27
2023-05-25T06:06:13.826Z,1020.26
2023-05-25T06:07:13.856Z,1020.28
2023-05-25T06:08:13.856Z,1020.22
2023-05-25T06:09:13.928Z,1020.23
2023-05-25T06:10:13.823Z,1020.27
2023-05-25T06:11:13.863Z,1020.21
2023-05-25T06:12:13.786Z,1020.26
2023-05-25T06:13:13.763Z,1020.24
2023-05-25T06:14:13.751Z,1020.26
2023-05-25T06:15:13.753Z,1020.28
2023-05-25T06:16:13.765Z,1020.28
2023-05-25T06:17:13.735Z,1020.32
2023-05-25T06:18:13.759Z,1020.33
2023-05-25T06:19:13.697Z,1020.39
2023-05-25T06:20:13.788Z,1020.38
2023-05-25T06:21:13.672Z,1020.40
2023-05-25T06:22:13.673Z,1020.40
2023-05-25T06:23:13.651Z,1020.34
2023-05-25T06:24:13.619Z,1020.35
2023-05-25T06:25:13.624Z,1020.35
2023-05-25T06:26:13.612Z,1020.34
2023-05-25T06:27:13.633Z,1020.29
2023-05-25T06:28:13.596Z,1020.30
2023-05-25T06:29:16.091Z,1020.33
2023-05-25T06:30:13.571Z,1020.34
2023-05-25T06:31:13.572Z,1020.32
2023-05-25T06:32:13.581Z,1020.31
2023-05-25T06:33:13.539Z,1020.34
2023-05-25T06:34:13.538Z,1020.32
2023-05-25T06:35:13.576Z,1020.33
2023-05-25T06:36:13.483Z,1020.35
2023-05-25T06:37:13.477Z,1020.33
2023-05-25T06:38:13.474Z,1020.33
2023-05-25T06:39:13.471Z,1020.34
2023-05-25T06:40:13.508Z,1020.35
2023-05-25T06:41:13.447Z,1020.36
2023-05-25T06:42:13.419Z,1020.35
2023-05-25T06:43:13.493Z,1020.37
2023-05-25T06:44:13.413Z,1020.34
2023-05-25T06:45:13.391Z,1020.34
2023-05-25T06:46:13.418Z,1020.39
2023-05-25T06:47:13.361Z,1020.41
2023-05-25T06:48:13.431Z,1020.40
2023-05-25T06:49:13.344Z,1020.43
2023-05-25T06:50:13.363Z,1020.42
2023-05-25T06:51:13.369Z,1020.41
2023-05-25T06:52:13.303Z,1020.45
2023-05-25T06:53:13.296Z,1020.49
2023-05-25T06:54:13.285Z,1020.51
2023-05-25T06:55:13.276Z,1020.55
2023-05-25T06:56:13.277Z,1020.52
2023-05-25T06:57:13.270Z,1020.56
2023-05-25T06:58:13.234Z,1020.55
2023-05-25T06:59:13.252Z,1020.57
2023-05-25T07:00:13.211Z,1020.56
2023-05-25T07:01:13.237Z,1020.65
2023-05-25T07:02:13.202Z,1020.65
2023-05-25T07:03:13.203Z,1020.70
2023-05-25T07:04:13.166Z,1020.65
2023-05-25T07:05:13.244Z,1020.65
2023-05-25T07:06:13.157Z,1020.69
2023-05-25T07:07:13.170Z,1020.69
2023-05-25T07:08:13.162Z,1020.69
2023-05-25T07:09:13.163Z,1020.66
2023-05-25T07:10:13.113Z,1020.66
2023-05-25T07:11:13.232Z,1020.74
2023-05-25T07:12:13.328Z,1020.69
2023-05-25T07:13:13.102Z,1020.72
2023-05-25T07:14:13.330Z,1020.71
2023-05-25T07:15:13.163Z,1020.74
2023-05-25T07:16:13.065Z,1020.76
2023-05-25T07:17:13.049Z,1020.82
2023-05-25T07:18:13.077Z,1020.79
2023-05-25T07:19:13.038Z,1020.85
2023-05-25T07:20:13.173Z,1020.86
2023-05-25T07:21:13.001Z,1020.80
2023-05-25T07:22:12.995Z,1020.85
2023-05-25T07:23:13.031Z,1020.84
2023-05-25T07:24:12.961Z,1020.87
2023-05-25T07:25:12.963Z,1020.89
2023-05-25T07:26:12.930Z,1020.87
2023-05-25T07:27:12.922Z,1020.88
2023-05-25T07:28:12.902Z,1020.88
2023-05-25T07:29:12.923Z,1020.81
2023-05-25T07:30:12.917Z,1020.84
2023-05-25T07:31:12.967Z,1020.89
2023-05-25T07:32:12.874Z,1020.91
2023-05-25T07:33:12.881Z,1020.85
2023-05-25T07:34:12.862Z,1020.87
2023-05-25T07:35:12.942Z,1020.86
2023-05-25T07:36:12.880Z,1020.88
2023-05-25T07:37:12.836Z,1020.86
2023-05-25T07:38:12.815Z,1020.81
2023-05-25T07:39:12.784Z,1020.86
2023-05-25T07:40:12.829Z,1020.89
2023-05-25T07:41:12.776Z,1020.89
2023-05-25T07:42:12.888Z,1020.86
2023-05-25T07:43:12.746Z,1020.91
2023-05-25T07:44:12.733Z,1020.89
2023-05-25T07:45:12.742Z,1020.87
2023-05-25T07:46:12.718Z,1020.86
2023-05-25T07:47:12.834Z,1020.87
2023-05-25T07:48:12.748Z,1020.89
2023-05-25T07:49:12.702Z,1020.90
2023-05-25T07:50:12.679Z,1020.94
2023-05-25T07:51:12.691Z,1020.89
2023-05-25T07:52:12.662Z,1020.90
2023-05-25T07:53:12.690Z,1020.91
2023-05-25T07:54:12.710Z,1020.97
2023-05-25T07:55:12.645Z,1020.98
2023-05-25T07:56:12.596Z,1020.98
2023-05-25T07:57:12.613Z,1021.01
2023-05-25T07:58:12.585Z,1021.02
2023-05-25T07:59:12.593Z,1021.03
2023-05-25T08:00:12.567Z,1021.04
2023-05-25T08:01:12.548Z,1021.04
2023-05-25T08:02:12.566Z,1021.03
2023-05-25T08:03:12.672Z,1020.98
2023-05-25T08:04:12.579Z,1020.96
2023-05-25T08:05:12.647Z,1021.02
2023-05-25T08:06:12.488Z,1020.95
2023-05-25T08:07:12.476Z,1020.94
2023-05-25T08:08:12.465Z,1020.92
2023-05-25T08:09:12.517Z,1020.95
2023-05-25T08:10:12.485Z,1020.95
2023-05-25T08:11:12.446Z,1020.97
2023-05-25T08:13:12.415Z,1020.99
2023-05-25T08:14:12.413Z,1020.97
2023-05-25T08:15:12.401Z,1020.99
2023-05-25T08:16:12.409Z,1020.96
2023-05-25T08:17:12.500Z,1020.95
2023-05-25T08:18:12.390Z,1020.95
2023-05-25T08:19:12.390Z,1020.92
2023-05-25T08:20:12.381Z,1020.99
2023-05-25T08:21:12.323Z,1021.01
2023-05-25T08:22:12.361Z,1020.99
2023-05-25T08:23:12.337Z,1020.96
2023-05-25T08:24:12.304Z,1020.89
2023-05-25T08:25:12.281Z,1020.90
2023-05-25T08:26:31.180Z,1020.94
2023-05-25T08:27:13.314Z,1020.93
2023-05-25T08:28:12.257Z,1020.57
2023-05-25T08:29:12.238Z,1020.53
2023-05-25T08:30:12.219Z,1020.73
2023-05-25T08:31:12.258Z,1020.57
2023-05-25T08:32:12.213Z,1020.59
2023-05-25T08:33:12.277Z,1020.53
2023-05-25T08:34:12.190Z,1020.66
2023-05-25T08:35:12.190Z,1020.87
2023-05-25T08:36:12.162Z,1020.89
2023-05-25T08:37:12.162Z,1020.89
2023-05-25T08:38:12.136Z,1020.84
2023-05-25T08:39:12.150Z,1020.94
2023-05-25T08:40:12.117Z,1021.01
2023-05-25T08:41:12.179Z,1020.73
2023-05-25T08:42:12.091Z,1020.60
2023-05-25T08:43:12.079Z,1020.49
2023-05-25T08:44:12.152Z,1020.54
2023-05-25T08:45:22.562Z,1020.52
2023-05-25T08:46:13.055Z,1020.49
2023-05-25T08:47:12.053Z,1020.51
2023-05-25T08:48:12.309Z,1020.44
2023-05-25T08:49:12.138Z,1020.57
2023-05-25T08:50:12.017Z,1020.80
2023-05-25T08:51:12.297Z,1020.83
2023-05-25T08:52:12.023Z,1020.50
2023-05-25T08:53:12.099Z,1020.47
2023-05-25T08:54:12.001Z,1020.77
2023-05-25T08:55:11.954Z,1020.75
2023-05-25T08:56:11.953Z,1020.70
2023-05-25T08:57:11.947Z,1020.87
2023-05-25T08:58:11.934Z,1020.85
2023-05-25T08:59:11.909Z,1020.65
2023-05-25T09:00:11.905Z,1020.87
2023-05-25T09:01:11.900Z,1020.89
2023-05-25T09:02:12.016Z,1020.88
2023-05-25T09:03:11.987Z,1020.76
2023-05-25T09:04:12.049Z,1020.61
2023-05-25T09:05:11.996Z,1020.54
2023-05-25T09:06:11.840Z,1020.44
2023-05-25T09:07:12.014Z,1020.46
2023-05-25T09:08:12.671Z,1020.43
2023-05-25T09:09:11.818Z,1020.46
2023-05-25T09:10:11.793Z,1020.41
2023-05-25T09:11:16.221Z,1020.42
2023-05-25T09:12:12.777Z,1020.36
2023-05-25T09:13:20.573Z,1020.41
2023-05-25T09:14:12.745Z,1020.34
2023-05-25T09:15:11.744Z,1020.34
2023-05-25T09:16:11.749Z,1020.36
2023-05-25T09:17:11.737Z,1020.34
2023-05-25T09:18:13.078Z,1020.49
2023-05-25T09:19:11.751Z,1020.45
2023-05-25T09:20:11.710Z,1020.80
2023-05-25T09:21:11.683Z,1020.41
2023-05-25T09:22:15.995Z,1020.43
2023-05-25T09:23:12.714Z,1020.42
2023-05-25T09:24:11.633Z,1020.45
2023-05-25T09:25:11.648Z,1020.80
2023-05-25T09:26:11.624Z,1020.82
2023-05-25T09:27:11.631Z,1020.77
2023-05-25T09:29:12.632Z,1020.81
2023-05-25T09:30:11.594Z,1020.83
2023-05-25T09:31:11.558Z,1020.79
2023-05-25T09:32:11.613Z,1020.80
2023-05-25T09:33:11.623Z,1020.80
2023-05-25T09:34:11.541Z,1020.55
2023-05-25T09:35:11.554Z,1020.79
2023-05-25T09:36:11.523Z,1020.48
2023-05-25T09:37:11.685Z,1020.67
2023-05-25T09:38:11.795Z,1020.75
2023-05-25T09:39:11.684Z,1020.45
2023-05-25T09:40:11.492Z,1020.53
2023-05-25T09:41:11.511Z,1020.48
2023-05-25T09:42:11.466Z,1020.50
2023-05-25T09:43:11.437Z,1020.85
2023-05-25T09:44:12.155Z,1020.77
2023-05-25T09:45:11.414Z,1020.68
2023-05-25T09:46:11.531Z,1020.78
2023-05-25T09:47:11.448Z,1020.79
2023-05-25T09:48:11.462Z,1020.52
2023-05-25T09:49:11.393Z,1020.60
2023-05-25T09:50:11.366Z,1020.42
2023-05-25T09:51:11.375Z,1020.65
2023-05-25T09:52:11.353Z,1020.73
2023-05-25T09:53:11.360Z,1020.61
2023-05-25T09:54:11.334Z,1020.45
2023-05-25T09:55:11.340Z,1020.40
2023-05-25T09:56:11.300Z,1020.61
2023-05-25T09:57:11.300Z,1020.42
2023-05-25T09:58:11.289Z,1020.47
2023-05-25T09:59:11.287Z,1020.70
2023-05-25T10:00:11.290Z,1020.58
2023-05-25T10:01:11.315Z,1020.49
2023-05-25T10:02:11.244Z,1020.69
2023-05-25T10:03:11.295Z,1020.63
2023-05-25T10:04:11.262Z,1020.55
2023-05-25T10:05:11.261Z,1020.49
2023-05-25T10:06:11.223Z,1020.43
2023-05-25T10:07:11.173Z,1020.51
2023-05-25T10:08:11.184Z,1020.49
2023-05-25T10:09:11.174Z,1020.63
2023-05-25T10:10:11.153Z,1020.70
2023-05-25T10:11:11.166Z,1020.71
2023-05-25T10:12:11.154Z,1020.71
2023-05-25T10:13:11.114Z,1020.74
2023-05-25T10:14:11.118Z,1020.74
2023-05-25T10:15:11.120Z,1020.72
2023-05-25T10:16:11.112Z,1020.71
2023-05-25T10:17:11.095Z,1020.72
2023-05-25T10:18:11.209Z,1020.71
2023-05-25T10:19:11.043Z,1020.71
2023-05-25T10:20:11.084Z,1020.62
2023-05-25T10:21:11.044Z,1020.58
2023-05-25T10:22:11.015Z,1020.64
2023-05-25T10:23:11.058Z,1020.55
2023-05-25T10:24:10.992Z,1020.53
2023-05-25T10:25:11.013Z,1020.65
2023-05-25T10:26:11.144Z,1020.48
2023-05-25T10:27:25.622Z,1020.43
2023-05-25T10:28:11.984Z,1020.48
2023-05-25T10:29:10.928Z,1020.35
2023-05-25T10:30:10.924Z,1020.45
2023-05-25T10:31:10.992Z,1020.43
2023-05-25T10:32:10.912Z,1020.43
2023-05-25T10:33:10.967Z,1020.55
2023-05-25T10:34:10.891Z,1020.53
2023-05-25T10:35:10.881Z,1020.62
2023-05-25T10:36:11.674Z,1020.59
2023-05-25T10:37:10.862Z,1020.58
2023-05-25T10:38:10.857Z,1020.61
2023-05-25T10:39:10.835Z,1020.67
2023-05-25T10:40:10.814Z,1020.69
2023-05-25T10:41:10.833Z,1020.55
2023-05-25T10:42:10.806Z,1020.59
2023-05-25T10:43:10.811Z,1020.62
2023-05-25T10:44:10.773Z,1020.55
2023-05-25T10:45:10.770Z,1020.52
2023-05-25T10:46:10.751Z,1020.56
2023-05-25T10:47:10.881Z,1020.58
2023-05-25T10:48:10.800Z,1020.48
2023-05-25T10:49:10.728Z,1020.47
2023-05-25T10:50:10.721Z,1020.48
2023-05-25T10:51:11.984Z,1020.41
2023-05-25T10:52:10.736Z,1020.48
2023-05-25T10:53:10.678Z,1020.47
2023-05-25T10:54:10.723Z,1020.51
2023-05-25T10:55:10.677Z,1020.43
2023-05-25T10:56:10.836Z,1020.58
2023-05-25T10:57:10.623Z,1020.53
2023-05-25T10:58:10.616Z,1020.48
2023-05-25T10:59:10.637Z,1020.47
2023-05-25T11:00:10.668Z,1020.49
2023-05-25T11:01:10.670Z,1020.47
2023-05-25T11:02:10.669Z,1020.46
2023-05-25T11:03:10.608Z,1020.45
2023-05-25T11:04:10.637Z,1020.48
2023-05-25T11:05:10.563Z,1020.46
2023-05-25T11:06:10.538Z,1020.34
2023-05-25T11:07:10.553Z,1020.32
2023-05-25T11:08:10.523Z,1020.32
2023-05-25T11:09:10.497Z,1020.30
2023-05-25T11:10:10.538Z,1020.27
2023-05-25T11:11:10.521Z,1020.32
2023-05-25T11:12:10.466Z,1020.43
2023-05-25T11:13:10.472Z,1020.35
2023-05-25T11:14:10.460Z,1020.39
2023-05-25T11:15:10.471Z,1020.38
2023-05-25T11:16:10.420Z,1020.38
2023-05-25T11:17:10.867Z,1020.35
2023-05-25T11:18:10.436Z,1020.45
2023-05-25T11:19:10.405Z,1020.42
2023-05-25T11:20:10.438Z,1020.48
2023-05-25T11:21:10.366Z,1020.35
2023-05-25T11:22:10.376Z,1020.43
2023-05-25T11:23:10.346Z,1020.45
2023-05-25T11:24:10.340Z,1020.32
2023-05-25T11:25:10.375Z,1020.38
2023-05-25T11:26:10.328Z,1020.36
2023-05-25T11:27:10.316Z,1020.43
2023-05-25T11:28:10.296Z,1020.39
2023-05-25T11:29:10.289Z,1020.39
2023-05-25T11:30:10.316Z,1020.33
2023-05-25T11:31:10.326Z,1020.37
2023-05-25T11:32:10.375Z,1020.36
2023-05-25T11:33:10.294Z,1020.33
2023-05-25T11:34:10.243Z,1020.35
2023-05-25T11:35:10.232Z,1020.33
2023-05-25T11:36:10.221Z,1020.32
2023-05-25T11:37:10.421Z,1020.22
2023-05-25T11:38:10.200Z,1020.25
2023-05-25T11:39:20.525Z,1020.27
2023-05-25T11:40:11.205Z,1020.26
2023-05-25T11:41:10.184Z,1020.26
2023-05-25T11:42:10.172Z,1020.26
2023-05-25T11:43:10.160Z,1020.23
2023-05-25T11:44:10.133Z,1020.18
2023-05-25T11:45:10.101Z,1020.28
2023-05-25T11:46:10.130Z,1020.23
2023-05-25T11:47:10.280Z,1020.27
2023-05-25T11:48:10.127Z,1020.32
2023-05-25T11:49:10.088Z,1020.29
2023-05-25T11:50:10.079Z,1020.23
2023-05-25T11:51:10.056Z,1020.29
2023-05-25T11:52:10.049Z,1020.27
2023-05-25T11:53:10.027Z,1020.27
2023-05-25T11:54:10.047Z,1020.34
2023-05-25T11:55:10.036Z,1020.28
2023-05-25T11:56:10.440Z,1020.33
2023-05-25T11:57:09.992Z,1020.31
2023-05-25T11:58:09.976Z,1020.33
2023-05-25T11:59:09.953Z,1020.28
2023-05-25T12:00:09.988Z,1020.33
2023-05-25T12:01:09.944Z,1020.33
2023-05-25T12:02:09.924Z,1020.33
2023-05-25T12:03:09.989Z,1020.35
2023-05-25T12:04:09.966Z,1020.40
2023-05-25T12:05:11.292Z,1020.29
2023-05-25T12:06:09.875Z,1020.38
2023-05-25T12:07:09.889Z,1020.44
2023-05-25T12:08:09.851Z,1020.42
2023-05-25T12:09:09.834Z,1020.42
2023-05-25T12:10:09.964Z,1020.40
2023-05-25T12:11:09.828Z,1020.39
2023-05-25T12:12:09.822Z,1020.42
2023-05-25T12:13:09.816Z,1020.39
2023-05-25T12:14:09.797Z,1020.41
2023-05-25T12:15:09.781Z,1020.41
2023-05-25T12:16:09.801Z,1020.42
2023-05-25T12:17:09.814Z,1020.34
2023-05-25T12:18:09.786Z,1020.37
2023-05-25T12:19:09.760Z,1020.46
2023-05-25T12:20:09.851Z,1020.37
2023-05-25T12:21:09.699Z,1020.37
2023-05-25T12:22:09.736Z,1020.40